Gagetown, Canada
Current Conditions -  °F | °C
As of 4:00 AM on Saturday 20 Dec 2014 (Local Time) from CYCX Reporting Station
Scattered Clouds Scattered Clouds  
Wind Chill: 10°   Ceiling: Unl
Heat Index: 19°   Visibility: 15mi
Dew Point: 16°   Wind: 7mph
Humidity: 86%   Direction: 10°N
Pressure: 30.19"   Gusts: NA
Location:  45.77°N, 66.15°W
Report Text: CYCX 200800Z 01006KT 15SM SCT019 M07/M09 A3019 RMK SC3DA-2843FT SLP227
Loading
Personal Weather Stations






























Interactive Weather Map New forecast layout! Learn more

10-Day Weather Forecast

Advertisements
Track Severe Weather on mobile